Time;durP1;ratioP1;P1;durP2;ratioP2;P2;SDS_P1;SDS_P2;PMS_P1;PMS_P2;Temp;Humidity;BMP_temperature;BMP_pressure;BME280_temperature;BME280_humidity;BME280_pressure;Samples;Min_cycle;Max_cycle;Signal;HPM_P1;HPM_P2
2022/01/16 00:06:09;;;;;;;0.13;0.10;;;;;;;;;;4197388;28;20048;-35
2022/01/16 00:08:11;;;;;;;0.20;0.10;;;;;;;;;;4195453;28;20107;-35
2022/01/16 00:10:12;;;;;;;0.10;0.10;;;;;;;;;;4197386;28;20102;-34
2022/01/16 00:12:18;;;;;;;0.30;0.20;;;;;;;;;;4197277;28;20048;-37
2022/01/16 00:14:19;;;;;;;0.10;0.10;;;;;;;;;;4197446;28;20101;-33
2022/01/16 00:16:20;;;;;;;0.20;0.13;;;;;;;;;;4197288;28;20458;-39
2022/01/16 00:18:29;;;;;;;0.10;0.05;;;;;;;;;;4197472;28;20052;-34
2022/01/16 00:20:31;;;;;;;0.52;0.20;;;;;;;;;;4197393;28;20052;-32
2022/01/16 00:22:37;;;;;;;0.10;0.10;;;;;;;;;;4196655;28;20041;-34
2022/01/16 00:24:38;;;;;;;0.10;0.10;;;;;;;;;;4197098;28;20500;-35
2022/01/16 00:26:40;;;;;;;0.40;0.10;;;;;;;;;;4197167;28;20056;-33
2022/01/16 00:28:41;;;;;;;0.30;0.10;;;;;;;;;;4197097;28;20382;-33
2022/01/16 00:30:42;;;;;;;0.20;0.10;;;;;;;;;;4199346;28;20048;-35
2022/01/16 00:32:44;;;;;;;0.20;0.10;;;;;;;;;;4200462;28;20428;-32
2022/01/16 00:34:45;;;;;;;0.30;0.10;;;;;;;;;;4200722;28;20052;-34
2022/01/16 00:36:46;;;;;;;0.10;0.10;;;;;;;;;;4199868;28;20061;-35
2022/01/16 00:38:48;;;;;;;0.20;0.10;;;;;;;;;;4200410;28;20388;-33
2022/01/16 00:40:49;;;;;;;0.30;0.10;;;;;;;;;;4199141;28;20060;-33
2022/01/16 00:42:50;;;;;;;0.10;0.10;;;;;;;;;;4199243;28;20052;-36
2022/01/16 00:44:51;;;;;;;0.10;0.10;;;;;;;;;;4200308;28;20045;-32
2022/01/16 00:46:52;;;;;;;0.20;0.10;;;;;;;;;;4200175;28;20446;-34
2022/01/16 00:48:53;;;;;;;0.10;0.05;;;;;;;;;;4200528;28;20048;-36
2022/01/16 00:50:55;;;;;;;0.10;0.10;;;;;;;;;;4200217;28;20118;-35
2022/01/16 00:52:56;;;;;;;0.13;0.10;;;;;;;;;;4198915;28;20098;-35
2022/01/16 00:55:02;;;;;;;0.30;0.10;;;;;;;;;;4191336;28;20311;-36
2022/01/16 00:57:04;;;;;;;0.10;0.10;;;;;;;;;;4181769;28;20057;-37
2022/01/16 00:59:05;;;;;;;0.10;0.10;;;;;;;;;;4181345;28;20052;-32
2022/01/16 01:01:07;;;;;;;0.35;0.10;;;;;;;;;;4181725;28;20048;-34
2022/01/16 01:03:08;;;;;;;0.20;0.10;;;;;;;;;;4181277;28;20382;-39
2022/01/16 01:05:09;;;;;;;0.20;0.10;;;;;;;;;;4179866;28;20087;-35
2022/01/16 01:07:10;;;;;;;0.17;0.10;;;;;;;;;;4180842;28;20098;-36
2022/01/16 01:09:11;;;;;;;0.13;0.10;;;;;;;;;;4195409;28;20059;-35
2022/01/16 01:11:16;;;;;;;0.10;0.10;;;;;;;;;;4188992;28;20187;-35
2022/01/16 01:13:31;;;;;;;0.75;0.50;;;;;;;;;;4188238;28;20061;-37
2022/01/16 01:15:40;;;;;;;0.20;0.20;;;;;;;;;;4186646;28;20491;-36
2022/01/16 01:17:46;;;;;;;0.10;0.10;;;;;;;;;;4183288;28;20060;-36
2022/01/16 01:19:48;;;;;;;0.22;0.10;;;;;;;;;;4183307;28;20068;-34
2022/01/16 01:21:49;;;;;;;0.15;0.13;;;;;;;;;;4182528;28;20049;-32
2022/01/16 01:23:50;;;;;;;0.08;0.03;;;;;;;;;;4182573;28;20053;-34
2022/01/16 01:25:51;;;;;;;0.40;0.10;;;;;;;;;;4182103;28;20106;-34
2022/01/16 01:27:52;;;;;;;0.20;0.10;;;;;;;;;;4186455;28;20179;-38
2022/01/16 01:30:00;;;;;;;0.60;0.20;;;;;;;;;;4196809;28;20056;-36
2022/01/16 01:32:01;;;;;;;0.77;0.28;;;;;;;;;;4196606;28;20098;-36
2022/01/16 01:34:02;;;;;;;0.70;0.30;;;;;;;;;;4197015;28;20078;-38
2022/01/16 01:36:03;;;;;;;0.32;0.30;;;;;;;;;;4197003;28;20786;-38
2022/01/16 01:38:05;;;;;;;0.32;0.10;;;;;;;;;;4196389;28;20099;-38
2022/01/16 01:40:08;;;;;;;0.15;0.10;;;;;;;;;;4196025;28;20114;-37
2022/01/16 01:42:11;;;;;;;0.20;0.10;;;;;;;;;;4194449;28;20432;-34
2022/01/16 01:51:13;;;;;;;0.08;0.08;;;;;;;;;;4191920;28;20492;-33
2022/01/16 01:53:15;;;;;;;0.10;0.10;;;;;;;;;;4183905;28;20045;-36
2022/01/16 01:55:16;;;;;;;0.28;0.10;;;;;;;;;;4181684;28;20053;-37
2022/01/16 01:57:17;;;;;;;0.15;0.10;;;;;;;;;;4184158;28;20053;-35
2022/01/16 01:59:18;;;;;;;0.40;0.10;;;;;;;;;;4188092;28;20048;-32
2022/01/16 02:01:20;;;;;;;0.38;0.13;;;;;;;;;;4198235;28;20485;-39
2022/01/16 02:03:42;;;;;;;0.00;0.00;;;;;;;;;;4198059;28;20049;-35
2022/01/16 02:05:44;;;;;;;0.30;0.20;;;;;;;;;;4198552;28;20074;-34
2022/01/16 02:07:46;;;;;;;0.25;0.10;;;;;;;;;;4197634;28;20048;-34
2022/01/16 02:09:47;;;;;;;0.10;0.10;;;;;;;;;;4198286;28;20462;-33
2022/01/16 02:11:48;;;;;;;0.32;0.20;;;;;;;;;;4198010;28;20056;-32
2022/01/16 02:13:57;;;;;;;0.20;0.20;;;;;;;;;;4198517;28;20098;-33
2022/01/16 02:34:35;;;;;;;0.10;0.10;;;;;;;;;;4186935;28;20049;-32
2022/01/16 02:36:44;;;;;;;0.52;0.20;;;;;;;;;;4200864;28;20053;-33
2022/01/16 02:38:47;;;;;;;0.57;0.20;;;;;;;;;;4195072;28;20181;-33
2022/01/16 02:40:49;;;;;;;0.10;0.10;;;;;;;;;;4201852;28;20834;-33
2022/01/16 02:42:52;;;;;;;0.20;0.10;;;;;;;;;;4211582;28;20098;-33
2022/01/16 02:45:02;;;;;;;0.20;0.10;;;;;;;;;;4211482;28;20052;-32
2022/01/16 02:47:03;;;;;;;0.30;0.20;;;;;;;;;;4197337;28;20048;-31
2022/01/16 02:49:14;;;;;;;0.25;0.17;;;;;;;;;;4203945;28;20052;-32
2022/01/16 02:51:17;;;;;;;0.17;0.10;;;;;;;;;;4196911;28;20485;-36
2022/01/16 02:53:17;;;;;;;0.25;0.10;;;;;;;;;;4194239;28;20045;-34
2022/01/16 02:55:21;;;;;;;0.25;0.17;;;;;;;;;;4194550;28;20102;-32
2022/01/16 02:57:22;;;;;;;0.68;0.20;;;;;;;;;;4194474;28;20052;-31
2022/01/16 02:59:23;;;;;;;0.28;0.15;;;;;;;;;;4193457;28;20074;-35
2022/01/16 03:01:24;;;;;;;0.60;0.10;;;;;;;;;;4194563;28;20048;-36
2022/01/16 03:03:25;;;;;;;0.20;0.20;;;;;;;;;;4194357;28;20088;-35
2022/01/16 03:05:26;;;;;;;0.30;0.15;;;;;;;;;;4194648;28;20451;-32
2022/01/16 03:07:27;;;;;;;0.30;0.20;;;;;;;;;;4194002;28;20056;-36
2022/01/16 03:09:39;;;;;;;0.20;0.10;;;;;;;;;;4194314;28;20061;-35
2022/01/16 03:11:46;;;;;;;0.32;0.17;;;;;;;;;;4194665;28;20053;-39
2022/01/16 03:13:48;;;;;;;0.20;0.20;;;;;;;;;;4194626;28;20053;-37
2022/01/16 03:15:51;;;;;;;0.30;0.10;;;;;;;;;;4194427;28;20057;-36
2022/01/16 03:22:19;;;;;;;0.20;0.10;;;;;;;;;;4193662;28;20048;-36
2022/01/16 03:24:25;;;;;;;0.63;0.30;;;;;;;;;;4193759;28;20739;-33
2022/01/16 03:26:25;;;;;;;0.22;0.20;;;;;;;;;;4194108;28;20064;-37
2022/01/16 03:28:27;;;;;;;1.25;0.20;;;;;;;;;;4193962;28;20057;-35
2022/01/16 03:30:28;;;;;;;0.38;0.15;;;;;;;;;;4194428;28;20048;-35
2022/01/16 03:32:29;;;;;;;0.22;0.10;;;;;;;;;;4193911;28;20052;-38
2022/01/16 03:34:30;;;;;;;0.10;0.10;;;;;;;;;;4193850;28;20056;-35
2022/01/16 03:36:30;;;;;;;0.40;0.30;;;;;;;;;;4182340;28;20140;-36
2022/01/16 03:38:31;;;;;;;0.45;0.20;;;;;;;;;;4182372;28;20099;-35
2022/01/16 03:40:33;;;;;;;0.30;0.20;;;;;;;;;;4183249;28;20053;-34
2022/01/16 03:42:36;;;;;;;0.30;0.10;;;;;;;;;;4183087;28;20107;-35
2022/01/16 03:44:37;;;;;;;0.75;0.35;;;;;;;;;;4182903;28;20041;-35
2022/01/16 03:46:39;;;;;;;0.43;0.10;;;;;;;;;;4182817;28;20059;-35
2022/01/16 03:48:40;;;;;;;0.45;0.20;;;;;;;;;;4195306;28;20382;-37
2022/01/16 03:50:41;;;;;;;0.10;0.10;;;;;;;;;;4199377;28;20098;-35
2022/01/16 03:52:42;;;;;;;0.25;0.13;;;;;;;;;;4198849;28;20091;-34
2022/01/16 03:54:42;;;;;;;0.20;0.10;;;;;;;;;;4199477;28;20094;-34
2022/01/16 03:56:44;;;;;;;0.32;0.10;;;;;;;;;;4199382;28;20360;-38
2022/01/16 03:58:44;;;;;;;0.20;0.10;;;;;;;;;;4199236;28;20052;-35
2022/01/16 04:00:45;;;;;;;0.55;0.20;;;;;;;;;;4199368;28;20130;-34
2022/01/16 04:02:46;;;;;;;0.90;0.20;;;;;;;;;;4199120;28;20113;-40
2022/01/16 04:04:47;;;;;;;0.30;0.10;;;;;;;;;;4199348;28;20101;-37
2022/01/16 04:06:48;;;;;;;0.20;0.20;;;;;;;;;;4198498;28;20056;-37
2022/01/16 04:08:51;;;;;;;0.30;0.20;;;;;;;;;;4199228;28;20040;-38
2022/01/16 04:10:51;;;;;;;0.32;0.10;;;;;;;;;;4199122;28;20369;-35
2022/01/16 04:12:52;;;;;;;0.35;0.10;;;;;;;;;;4198835;28;20058;-35
2022/01/16 04:15:39;;;;;;;0.60;0.13;;;;;;;;;;4199106;28;20082;-38
2022/01/16 04:17:16;;;;;;;0.75;0.10;;;;;;;;;;4198245;28;20480;-36
2022/01/16 04:19:17;;;;;;;0.20;0.20;;;;;;;;;;4198894;28;20377;-36
2022/01/16 04:21:19;;;;;;;0.70;0.20;;;;;;;;;;4198975;28;20049;-35
2022/01/16 04:23:20;;;;;;;1.27;0.30;;;;;;;;;;4198067;28;20452;-35
2022/01/16 04:25:20;;;;;;;0.65;0.20;;;;;;;;;;4198917;28;20459;-36
2022/01/16 04:27:21;;;;;;;1.00;0.20;;;;;;;;;;4198668;28;20109;-36
2022/01/16 04:29:23;;;;;;;0.45;0.20;;;;;;;;;;4198824;28;20409;-35
2022/01/16 04:31:23;;;;;;;0.35;0.20;;;;;;;;;;4198824;28;20048;-35
2022/01/16 04:33:24;;;;;;;0.35;0.30;;;;;;;;;;4198668;28;20137;-37
2022/01/16 04:35:26;;;;;;;0.60;0.20;;;;;;;;;;4198670;28;20422;-33
2022/01/16 04:37:27;;;;;;;0.10;0.10;;;;;;;;;;4198400;28;20048;-31
2022/01/16 04:39:32;;;;;;;0.38;0.13;;;;;;;;;;4198936;28;20519;-32
2022/01/16 04:43:53;;;;;;;0.45;0.30;;;;;;;;;;4198473;28;20451;-33
2022/01/16 04:45:54;;;;;;;0.20;0.10;;;;;;;;;;4198496;28;20049;-31
2022/01/16 04:47:55;;;;;;;1.15;0.20;;;;;;;;;;4197342;28;20040;-31
2022/01/16 04:49:56;;;;;;;0.38;0.20;;;;;;;;;;4198762;28;20049;-32
2022/01/16 04:51:57;;;;;;;0.30;0.15;;;;;;;;;;4197854;28;20049;-37
2022/01/16 04:53:59;;;;;;;1.13;0.38;;;;;;;;;;4198337;28;20094;-35
2022/01/16 04:56:00;;;;;;;0.40;0.20;;;;;;;;;;4198340;28;20056;-34
2022/01/16 04:58:01;;;;;;;0.30;0.20;;;;;;;;;;4198132;28;20480;-33
2022/01/16 05:00:03;;;;;;;0.50;0.10;;;;;;;;;;4198257;28;20056;-35
2022/01/16 05:02:04;;;;;;;0.90;0.25;;;;;;;;;;4198059;28;20052;-35
2022/01/16 05:04:05;;;;;;;0.25;0.15;;;;;;;;;;4198102;28;20491;-35
2022/01/16 05:06:06;;;;;;;0.32;0.20;;;;;;;;;;4198367;28;20048;-37
2022/01/16 05:08:07;;;;;;;0.40;0.22;;;;;;;;;;4197858;28;20136;-33
2022/01/16 05:10:08;;;;;;;0.60;0.30;;;;;;;;;;4198334;28;20053;-37
2022/01/16 05:12:22;;;;;;;0.40;0.30;;;;;;;;;;4194131;28;20048;-32
2022/01/16 05:16:43;;;;;;;0.55;0.32;;;;;;;;;;4197910;28;20052;-36
2022/01/16 05:18:44;;;;;;;0.43;0.20;;;;;;;;;;4197982;28;20433;-36
2022/01/16 05:20:45;;;;;;;0.35;0.20;;;;;;;;;;4197741;28;20109;-34
2022/01/16 05:22:46;;;;;;;0.13;0.13;;;;;;;;;;4190627;28;20052;-35
2022/01/16 05:24:47;;;;;;;0.50;0.20;;;;;;;;;;4185857;28;20103;-31
2022/01/16 05:26:48;;;;;;;0.50;0.30;;;;;;;;;;4181356;28;20045;-33
2022/01/16 05:28:49;;;;;;;0.20;0.10;;;;;;;;;;4181455;28;20472;-35
2022/01/16 05:30:50;;;;;;;0.30;0.10;;;;;;;;;;4181223;28;20106;-34
2022/01/16 05:32:51;;;;;;;0.47;0.20;;;;;;;;;;4181074;28;20053;-34
2022/01/16 05:34:52;;;;;;;0.28;0.20;;;;;;;;;;4180000;28;20045;-35
2022/01/16 05:36:53;;;;;;;0.75;0.20;;;;;;;;;;4180538;28;20449;-35
2022/01/16 05:38:54;;;;;;;0.30;0.20;;;;;;;;;;4181119;28;20083;-33
2022/01/16 05:40:55;;;;;;;0.30;0.20;;;;;;;;;;4181097;28;20378;-34
2022/01/16 05:42:56;;;;;;;0.40;0.20;;;;;;;;;;4181085;28;20114;-38
2022/01/16 05:44:57;;;;;;;0.45;0.20;;;;;;;;;;4180895;28;20053;-34
2022/01/16 05:47:02;;;;;;;0.50;0.20;;;;;;;;;;4180828;28;20140;-34
2022/01/16 05:49:03;;;;;;;0.20;0.10;;;;;;;;;;4196531;28;20048;-33
2022/01/16 05:51:04;;;;;;;0.17;0.17;;;;;;;;;;4197707;28;20048;-34
2022/01/16 05:53:05;;;;;;;0.57;0.22;;;;;;;;;;4196909;28;20105;-32
2022/01/16 05:55:06;;;;;;;0.65;0.20;;;;;;;;;;4197731;28;20081;-34
2022/01/16 05:57:07;;;;;;;0.43;0.20;;;;;;;;;;4197520;28;20057;-34
2022/01/16 05:59:08;;;;;;;0.32;0.10;;;;;;;;;;4197445;28;20052;-34
2022/01/16 06:01:09;;;;;;;0.43;0.20;;;;;;;;;;4197544;28;20063;-33
2022/01/16 06:03:10;;;;;;;0.40;0.30;;;;;;;;;;4197374;28;20463;-36
2022/01/16 06:05:12;;;;;;;0.38;0.15;;;;;;;;;;4197418;28;20095;-33
2022/01/16 06:07:13;;;;;;;0.65;0.30;;;;;;;;;;4196741;28;20465;-33
2022/01/16 06:09:14;;;;;;;0.60;0.20;;;;;;;;;;4197597;28;20048;-34
2022/01/16 06:11:15;;;;;;;0.13;0.10;;;;;;;;;;4197331;28;20106;-34
2022/01/16 06:13:16;;;;;;;0.32;0.22;;;;;;;;;;4197182;28;20048;-36
2022/01/16 06:15:22;;;;;;;0.55;0.20;;;;;;;;;;4197438;28;20098;-34
2022/01/16 06:17:23;;;;;;;0.57;0.20;;;;;;;;;;4197417;28;20040;-34
2022/01/16 06:19:23;;;;;;;0.52;0.22;;;;;;;;;;4197314;28;20098;-33
2022/01/16 06:21:24;;;;;;;0.80;0.20;;;;;;;;;;4197440;28;20120;-33
2022/01/16 06:23:25;;;;;;;0.30;0.30;;;;;;;;;;4196798;28;20091;-36
2022/01/16 06:25:26;;;;;;;0.60;0.30;;;;;;;;;;4196225;28;20074;-33
2022/01/16 06:27:27;;;;;;;0.25;0.13;;;;;;;;;;4197088;28;20473;-35
2022/01/16 06:29:28;;;;;;;0.25;0.10;;;;;;;;;;4197136;28;20126;-36
2022/01/16 06:31:29;;;;;;;1.35;0.20;;;;;;;;;;4197167;28;20052;-34
2022/01/16 06:33:30;;;;;;;0.10;0.10;;;;;;;;;;4196934;28;20052;-39
2022/01/16 06:35:31;;;;;;;0.30;0.30;;;;;;;;;;4197110;28;20102;-32
2022/01/16 06:37:32;;;;;;;0.15;0.10;;;;;;;;;;4196578;28;20091;-34
2022/01/16 06:39:34;;;;;;;0.10;0.10;;;;;;;;;;4197393;28;20098;-33
2022/01/16 06:41:35;;;;;;;0.20;0.10;;;;;;;;;;4197096;28;20484;-36
2022/01/16 06:43:36;;;;;;;0.20;0.10;;;;;;;;;;4196797;28;20052;-36
2022/01/16 06:45:37;;;;;;;0.50;0.30;;;;;;;;;;4197004;28;20091;-33
2022/01/16 06:47:38;;;;;;;0.43;0.10;;;;;;;;;;4196728;28;20079;-35
2022/01/16 06:49:39;;;;;;;0.70;0.32;;;;;;;;;;4195746;28;20052;-33
2022/01/16 06:51:40;;;;;;;0.40;0.20;;;;;;;;;;4196867;28;20513;-38
2022/01/16 06:53:41;;;;;;;0.55;0.25;;;;;;;;;;4196843;28;20095;-33
2022/01/16 06:55:42;;;;;;;1.00;0.28;;;;;;;;;;4197195;28;20103;-34
2022/01/16 06:57:43;;;;;;;0.20;0.10;;;;;;;;;;4197012;28;20507;-38
2022/01/16 06:59:45;;;;;;;0.40;0.25;;;;;;;;;;4197036;28;20178;-34
2022/01/16 07:01:46;;;;;;;0.43;0.20;;;;;;;;;;4196962;28;20053;-32
2022/01/16 07:03:48;;;;;;;0.25;0.10;;;;;;;;;;4197146;28;20111;-34
2022/01/16 07:05:49;;;;;;;0.17;0.10;;;;;;;;;;4196931;28;20053;-31
2022/01/16 07:07:51;;;;;;;0.65;0.20;;;;;;;;;;4196515;28;20098;-36
2022/01/16 07:09:52;;;;;;;0.43;0.15;;;;;;;;;;4197035;28;20053;-35
2022/01/16 07:11:53;;;;;;;0.40;0.10;;;;;;;;;;4199956;28;20102;-35
2022/01/16 07:13:54;;;;;;;0.50;0.20;;;;;;;;;;4200139;28;20483;-36
2022/01/16 07:15:55;;;;;;;0.20;0.10;;;;;;;;;;4199966;28;20529;-35
2022/01/16 07:17:56;;;;;;;0.60;0.30;;;;;;;;;;4199617;28;20488;-34
2022/01/16 07:19:57;;;;;;;0.52;0.28;;;;;;;;;;4199755;28;20382;-31
2022/01/16 07:21:58;;;;;;;0.35;0.30;;;;;;;;;;4199301;28;20109;-36
2022/01/16 07:23:59;;;;;;;0.43;0.10;;;;;;;;;;4199651;28;20062;-36
2022/01/16 07:25:59;;;;;;;0.10;0.10;;;;;;;;;;4199707;28;20094;-35
2022/01/16 07:28:00;;;;;;;0.30;0.20;;;;;;;;;;4199585;28;20087;-35
2022/01/16 07:30:02;;;;;;;0.40;0.13;;;;;;;;;;4199690;28;20053;-34
2022/01/16 07:32:03;;;;;;;0.20;0.10;;;;;;;;;;4199430;28;20049;-33
2022/01/16 07:34:05;;;;;;;1.17;0.20;;;;;;;;;;4199603;28;20481;-34
2022/01/16 07:36:06;;;;;;;0.55;0.20;;;;;;;;;;4199458;28;20067;-32
2022/01/16 07:38:07;;;;;;;0.20;0.20;;;;;;;;;;4198976;28;20131;-33
2022/01/16 07:40:10;;;;;;;0.25;0.13;;;;;;;;;;4199655;28;20056;-34
2022/01/16 07:42:11;;;;;;;0.15;0.15;;;;;;;;;;4199363;28;20075;-32
2022/01/16 07:44:12;;;;;;;0.10;0.10;;;;;;;;;;4199364;28;20542;-33
2022/01/16 07:46:12;;;;;;;0.30;0.20;;;;;;;;;;4199438;28;20091;-31
2022/01/16 07:48:13;;;;;;;0.45;0.20;;;;;;;;;;4199231;28;20093;-35
2022/01/16 07:50:15;;;;;;;0.50;0.30;;;;;;;;;;4199658;28;20044;-37
2022/01/16 07:52:16;;;;;;;0.30;0.20;;;;;;;;;;4198759;28;20060;-35
2022/01/16 07:54:18;;;;;;;0.45;0.30;;;;;;;;;;4199273;28;20102;-33
2022/01/16 07:56:19;;;;;;;0.30;0.13;;;;;;;;;;4199360;28;20061;-34
2022/01/16 07:58:20;;;;;;;0.10;0.00;;;;;;;;;;4199083;28;20062;-36
2022/01/16 08:00:21;;;;;;;0.45;0.30;;;;;;;;;;4199367;28;20064;-33
2022/01/16 08:02:23;;;;;;;0.10;0.10;;;;;;;;;;4199342;28;20049;-36
2022/01/16 08:04:24;;;;;;;0.10;0.10;;;;;;;;;;4199190;28;20102;-35
2022/01/16 08:06:25;;;;;;;0.70;0.15;;;;;;;;;;4199341;28;20124;-34
2022/01/16 08:08:26;;;;;;;0.20;0.20;;;;;;;;;;4198808;28;20052;-37
2022/01/16 08:10:27;;;;;;;0.28;0.00;;;;;;;;;;4199230;28;20133;-36
2022/01/16 08:12:28;;;;;;;0.30;0.15;;;;;;;;;;4197635;28;20053;-34
2022/01/16 08:14:29;;;;;;;0.15;0.13;;;;;;;;;;4199158;28;20102;-34
2022/01/16 08:16:30;;;;;;;0.60;0.40;;;;;;;;;;4198870;28;20103;-35
2022/01/16 08:18:31;;;;;;;0.28;0.10;;;;;;;;;;4198746;28;20095;-34
2022/01/16 08:20:32;;;;;;;0.40;0.20;;;;;;;;;;4198843;28;20164;-33
2022/01/16 08:22:34;;;;;;;0.47;0.28;;;;;;;;;;4198168;28;20056;-37
2022/01/16 08:24:34;;;;;;;0.50;0.10;;;;;;;;;;4198642;28;20488;-34
2022/01/16 08:26:35;;;;;;;0.30;0.30;;;;;;;;;;4199042;28;20085;-36
2022/01/16 08:28:36;;;;;;;0.82;0.20;;;;;;;;;;4198860;28;20558;-33
2022/01/16 08:30:37;;;;;;;0.43;0.20;;;;;;;;;;4198749;28;20055;-33
2022/01/16 08:32:39;;;;;;;0.60;0.20;;;;;;;;;;4198516;28;20119;-34
2022/01/16 08:34:40;;;;;;;0.57;0.10;;;;;;;;;;4198569;28;20060;-36
2022/01/16 08:36:41;;;;;;;0.30;0.20;;;;;;;;;;4198386;28;20059;-36
2022/01/16 08:38:43;;;;;;;0.15;0.10;;;;;;;;;;4198199;28;20475;-35
2022/01/16 08:40:44;;;;;;;0.20;0.10;;;;;;;;;;4198585;28;20056;-33
2022/01/16 08:42:45;;;;;;;0.35;0.20;;;;;;;;;;4198284;28;20094;-37
2022/01/16 08:44:46;;;;;;;0.60;0.10;;;;;;;;;;4198472;28;20049;-34
2022/01/16 08:46:47;;;;;;;0.35;0.20;;;;;;;;;;4198259;28;20109;-33
2022/01/16 08:48:48;;;;;;;0.20;0.20;;;;;;;;;;4197101;28;20048;-35
2022/01/16 08:50:49;;;;;;;0.57;0.25;;;;;;;;;;4198646;28;20056;-32
2022/01/16 08:52:50;;;;;;;0.20;0.10;;;;;;;;;;4197863;28;20079;-37
2022/01/16 08:54:51;;;;;;;0.20;0.20;;;;;;;;;;4198370;28;20114;-36
2022/01/16 08:56:52;;;;;;;0.20;0.13;;;;;;;;;;4198169;28;20140;-34
2022/01/16 08:58:53;;;;;;;0.15;0.10;;;;;;;;;;4198289;28;20048;-36
2022/01/16 09:00:54;;;;;;;0.43;0.10;;;;;;;;;;4198306;28;20056;-33
2022/01/16 09:02:57;;;;;;;0.52;0.10;;;;;;;;;;4197988;28;20098;-32
2022/01/16 09:04:58;;;;;;;0.10;0.10;;;;;;;;;;4198319;28;20106;-33
2022/01/16 09:06:58;;;;;;;0.20;0.20;;;;;;;;;;4197610;28;20088;-35
2022/01/16 09:09:00;;;;;;;0.20;0.15;;;;;;;;;;4198093;28;20101;-32
2022/01/16 09:11:01;;;;;;;0.47;0.10;;;;;;;;;;4198119;28;20131;-37
2022/01/16 09:13:03;;;;;;;0.43;0.20;;;;;;;;;;4198193;28;20056;-32
2022/01/16 09:15:05;;;;;;;0.10;0.10;;;;;;;;;;4196793;28;20401;-34
2022/01/16 09:17:06;;;;;;;0.10;0.10;;;;;;;;;;4198005;28;20052;-34
2022/01/16 09:19:07;;;;;;;0.20;0.10;;;;;;;;;;4197995;28;20515;-38
2022/01/16 09:21:08;;;;;;;0.10;0.10;;;;;;;;;;4198267;28;20083;-35
2022/01/16 09:23:09;;;;;;;0.38;0.38;;;;;;;;;;4197367;28;20060;-34
2022/01/16 09:25:11;;;;;;;0.43;0.10;;;;;;;;;;4197823;28;20496;-34
2022/01/16 09:27:12;;;;;;;0.40;0.20;;;;;;;;;;4179938;28;20048;-33
2022/01/16 09:29:13;;;;;;;0.10;0.10;;;;;;;;;;4197794;28;20446;-36
2022/01/16 09:31:14;;;;;;;0.50;0.20;;;;;;;;;;4197892;28;20099;-33
2022/01/16 09:33:15;;;;;;;0.20;0.20;;;;;;;;;;4197153;28;20056;-36
2022/01/16 09:35:17;;;;;;;0.10;0.10;;;;;;;;;;4197742;28;20488;-34
2022/01/16 09:37:18;;;;;;;0.50;0.10;;;;;;;;;;4197215;28;20143;-33
2022/01/16 09:39:19;;;;;;;0.22;0.13;;;;;;;;;;4197680;28;20091;-32
2022/01/16 09:41:20;;;;;;;0.40;0.20;;;;;;;;;;4197545;28;20056;-35
2022/01/16 09:43:21;;;;;;;0.30;0.10;;;;;;;;;;4197569;28;20489;-33
2022/01/16 09:45:22;;;;;;;0.50;0.20;;;;;;;;;;4197546;28;20048;-33
2022/01/16 09:47:23;;;;;;;0.20;0.20;;;;;;;;;;4197393;28;20057;-32
2022/01/16 09:49:24;;;;;;;0.32;0.20;;;;;;;;;;4197880;28;20048;-36
2022/01/16 09:51:25;;;;;;;0.03;0.00;;;;;;;;;;4197729;28;20159;-33
2022/01/16 09:53:26;;;;;;;0.10;0.10;;;;;;;;;;4195982;28;20040;-35
2022/01/16 09:55:27;;;;;;;0.10;0.10;;;;;;;;;;4197536;28;20106;-33
2022/01/16 09:57:28;;;;;;;0.20;0.05;;;;;;;;;;4197381;28;20139;-32
2022/01/16 09:59:29;;;;;;;0.47;0.15;;;;;;;;;;4197579;28;20102;-34
2022/01/16 10:01:30;;;;;;;0.38;0.20;;;;;;;;;;4197634;28;20098;-37
2022/01/16 10:03:35;;;;;;;0.10;0.10;;;;;;;;;;4197314;28;20491;-35
2022/01/16 10:05:37;;;;;;;0.20;0.13;;;;;;;;;;4197599;28;20052;-33
2022/01/16 10:07:40;;;;;;;0.20;0.10;;;;;;;;;;4197144;28;20048;-36
2022/01/16 10:09:43;;;;;;;0.17;0.10;;;;;;;;;;4197391;28;20044;-34
2022/01/16 10:11:54;;;;;;;0.20;0.20;;;;;;;;;;4197534;28;20045;-36
2022/01/16 10:14:02;;;;;;;0.20;0.10;;;;;;;;;;4197398;28;20052;-34
2022/01/16 10:16:03;;;;;;;0.15;0.10;;;;;;;;;;4197685;28;20052;-33
2022/01/16 10:18:05;;;;;;;0.30;0.10;;;;;;;;;;4197160;28;20480;-37
2022/01/16 10:20:07;;;;;;;0.38;0.17;;;;;;;;;;4197295;28;20056;-36
2022/01/16 10:22:10;;;;;;;0.08;0.08;;;;;;;;;;4196828;28;20048;-35
2022/01/16 10:24:28;;;;;;;0.30;0.20;;;;;;;;;;4197060;28;20060;-38
2022/01/16 10:26:29;;;;;;;0.20;0.10;;;;;;;;;;4197315;28;20550;-36
2022/01/16 10:28:33;;;;;;;0.17;0.10;;;;;;;;;;4197176;28;20053;-35
2022/01/16 10:30:44;;;;;;;0.20;0.10;;;;;;;;;;4197428;28;20045;-37
2022/01/16 10:32:46;;;;;;;0.30;0.10;;;;;;;;;;4197378;28;20071;-34
2022/01/16 10:34:49;;;;;;;0.22;0.10;;;;;;;;;;4197171;28;20056;-37
2022/01/16 10:36:50;;;;;;;0.30;0.25;;;;;;;;;;4196559;28;20472;-37
2022/01/16 10:39:02;;;;;;;0.20;0.20;;;;;;;;;;4197358;28;20060;-37
2022/01/16 10:41:03;;;;;;;0.20;0.10;;;;;;;;;;4197174;28;20056;-35
2022/01/16 10:43:13;;;;;;;0.10;0.10;;;;;;;;;;4197308;28;20090;-33
2022/01/16 10:45:15;;;;;;;0.10;0.10;;;;;;;;;;4196411;28;20048;-37
2022/01/16 10:47:47;;;;;;;0.10;0.10;;;;;;;;;;4200237;28;20473;-33
2022/01/16 10:50:07;;;;;;;0.20;0.10;;;;;;;;;;4196151;28;20041;-32
2022/01/16 10:52:11;;;;;;;0.10;0.00;;;;;;;;;;4199965;28;20050;-36
2022/01/16 10:54:28;;;;;;;0.10;0.10;;;;;;;;;;4198998;28;20048;-32
2022/01/16 10:56:30;;;;;;;0.22;0.10;;;;;;;;;;4200334;28;20382;-32
2022/01/16 10:58:41;;;;;;;0.10;0.10;;;;;;;;;;4200154;28;20061;-38
2022/01/16 11:00:43;;;;;;;0.13;0.10;;;;;;;;;;4200256;28;20082;-37
2022/01/16 11:02:46;;;;;;;0.15;0.10;;;;;;;;;;4200285;28;20131;-35
2022/01/16 11:04:47;;;;;;;0.00;0.00;;;;;;;;;;4200024;28;20437;-34
2022/01/16 11:07:00;;;;;;;0.40;0.00;;;;;;;;;;4199548;28;20062;-35
2022/01/16 11:09:03;;;;;;;0.08;0.08;;;;;;;;;;4200050;28;20052;-40
2022/01/16 11:11:06;;;;;;;0.03;0.03;;;;;;;;;;4200009;28;20045;-33
2022/01/16 11:13:07;;;;;;;0.30;0.10;;;;;;;;;;4199985;28;20048;-34
2022/01/16 11:15:08;;;;;;;0.00;0.00;;;;;;;;;;4200072;28;20449;-33
2022/01/16 11:17:09;;;;;;;0.20;0.10;;;;;;;;;;4198630;28;20052;-36
2022/01/16 11:19:10;;;;;;;0.08;0.08;;;;;;;;;;4199937;28;20071;-36
2022/01/16 11:23:28;;;;;;;0.00;0.00;;;;;;;;;;4199118;28;20048;-34
2022/01/16 11:25:36;;;;;;;0.05;0.00;;;;;;;;;;4199832;28;20044;-33
2022/01/16 11:27:39;;;;;;;0.10;0.10;;;;;;;;;;4199625;28;20040;-37
2022/01/16 11:29:40;;;;;;;0.20;0.20;;;;;;;;;;4199756;28;20052;-36
2022/01/16 11:31:43;;;;;;;0.10;0.10;;;;;;;;;;4199580;28;20105;-38
2022/01/16 11:33:44;;;;;;;0.10;0.10;;;;;;;;;;4199907;28;20052;-36
2022/01/16 11:35:50;;;;;;;0.00;0.00;;;;;;;;;;4198489;28;20460;-33
2022/01/16 11:37:51;;;;;;;0.63;0.10;;;;;;;;;;4198974;28;20445;-35
2022/01/16 11:39:52;;;;;;;0.00;0.00;;;;;;;;;;4199548;28;20052;-33
2022/01/16 11:41:56;;;;;;;0.10;0.10;;;;;;;;;;4199414;28;20091;-38
2022/01/16 11:43:57;;;;;;;0.03;0.03;;;;;;;;;;4199566;28;20110;-34
2022/01/16 11:46:12;;;;;;;0.40;0.15;;;;;;;;;;4199835;28;20053;-34
2022/01/16 11:48:16;;;;;;;0.10;0.10;;;;;;;;;;4199404;28;20472;-32
2022/01/16 11:50:17;;;;;;;0.10;0.10;;;;;;;;;;4199538;28;20472;-36
2022/01/16 11:52:19;;;;;;;0.10;0.10;;;;;;;;;;4199172;28;20060;-32
2022/01/16 11:54:20;;;;;;;0.10;0.10;;;;;;;;;;4199453;28;20101;-37
2022/01/16 11:59:03;;;;;;;0.27;0.20;;;;;;;;;;4199327;28;20087;-36
2022/01/16 12:01:03;;;;;;;0.10;0.10;;;;;;;;;;4199322;28;20056;-33
2022/01/16 12:03:24;;;;;;;0.10;0.10;;;;;;;;;;4199407;28;20114;-35
2022/01/16 12:05:26;;;;;;;0.13;0.10;;;;;;;;;;4199130;28;20052;-35
2022/01/16 12:07:36;;;;;;;0.13;0.10;;;;;;;;;;4198896;28;20055;-33
2022/01/16 12:09:51;;;;;;;0.10;0.10;;;;;;;;;;4199266;28;20331;-35
2022/01/16 12:11:52;;;;;;;0.05;0.00;;;;;;;;;;4199047;28;20477;-33
2022/01/16 12:13:53;;;;;;;0.20;0.10;;;;;;;;;;4199456;28;20095;-36
2022/01/16 12:16:12;;;;;;;0.10;0.10;;;;;;;;;;4199099;28;20090;-34
2022/01/16 12:18:32;;;;;;;0.10;0.08;;;;;;;;;;4199006;28;20040;-32
2022/01/16 12:20:36;;;;;;;0.00;0.00;;;;;;;;;;4197811;28;20052;-33
2022/01/16 12:22:41;;;;;;;0.47;0.10;;;;;;;;;;4198540;28;20377;-34
2022/01/16 12:24:43;;;;;;;0.03;0.03;;;;;;;;;;4198771;28;20056;-33
2022/01/16 12:26:44;;;;;;;0.10;0.10;;;;;;;;;;4199056;28;20048;-32
2022/01/16 12:28:45;;;;;;;0.15;0.10;;;;;;;;;;4199206;28;20048;-36
2022/01/16 12:30:48;;;;;;;0.38;0.10;;;;;;;;;;4198890;28;20370;-39
2022/01/16 12:32:59;;;;;;;0.10;0.10;;;;;;;;;;4198720;28;20477;-35
2022/01/16 12:35:00;;;;;;;0.10;0.10;;;;;;;;;;4198973;28;20420;-39
2022/01/16 12:37:01;;;;;;;0.10;0.08;;;;;;;;;;4198240;28;20056;-37
2022/01/16 12:39:07;;;;;;;0.13;0.10;;;;;;;;;;4198593;28;20424;-34
2022/01/16 12:41:17;;;;;;;0.10;0.00;;;;;;;;;;4198980;28;20056;-35
2022/01/16 12:43:31;;;;;;;0.08;0.08;;;;;;;;;;4198589;28;20052;-33
2022/01/16 12:45:36;;;;;;;0.20;0.20;;;;;;;;;;4198563;28;20055;-34
2022/01/16 12:47:37;;;;;;;0.00;0.00;;;;;;;;;;4198355;28;20044;-35
2022/01/16 12:49:38;;;;;;;0.10;0.10;;;;;;;;;;4198471;28;20044;-34
2022/01/16 12:51:40;;;;;;;0.10;0.10;;;;;;;;;;4198420;28;20163;-33
2022/01/16 12:53:46;;;;;;;0.03;0.03;;;;;;;;;;4197047;28;20094;-37
2022/01/16 12:55:47;;;;;;;0.10;0.10;;;;;;;;;;4198543;28;20048;-37
2022/01/16 12:57:48;;;;;;;0.15;0.00;;;;;;;;;;4198295;28;20059;-33
2022/01/16 12:59:49;;;;;;;0.10;0.10;;;;;;;;;;4198310;28;20045;-35